createdAt,value
2022-12-17T00:02:41.012Z,97552.22
2022-12-17T00:05:30.105Z,97551.14
2022-12-17T00:08:19.141Z,97549.39
2022-12-17T00:11:07.920Z,97553.59
2022-12-17T00:13:56.672Z,97550.68
2022-12-17T00:16:45.116Z,97550.52
2022-12-17T00:19:45.198Z,97554.30
2022-12-17T00:22:33.768Z,97557.36
2022-12-17T00:25:22.322Z,97556.43
2022-12-17T00:28:10.879Z,97556.33
2022-12-17T00:31:00.325Z,97557.54
2022-12-17T00:33:49.003Z,97559.45
2022-12-17T00:36:37.823Z,97561.17
2022-12-17T00:39:26.426Z,97564.90
2022-12-17T00:42:24.792Z,97574.73
2022-12-17T00:45:13.187Z,97569.88
2022-12-17T00:48:01.616Z,97571.38
2022-12-17T00:51:04.638Z,97575.82
2022-12-17T00:53:53.142Z,97578.27
2022-12-17T00:56:43.549Z,97575.83
2022-12-17T00:59:32.021Z,97583.44
2022-12-17T01:02:20.936Z,97586.20
2022-12-17T01:05:09.995Z,97587.03
2022-12-17T01:07:58.694Z,97588.08
2022-12-17T01:10:47.443Z,97592.66
2022-12-17T01:13:37.337Z,97592.10
2022-12-17T01:16:28.445Z,97600.92
2022-12-17T01:19:17.406Z,97602.71
2022-12-17T01:22:06.267Z,97605.96
2022-12-17T01:24:54.851Z,97608.53
2022-12-17T01:27:44.859Z,97614.62
2022-12-17T01:30:33.928Z,97618.33
2022-12-17T01:33:24.794Z,97619.17
2022-12-17T01:36:16.639Z,97622.73
2022-12-17T01:39:05.667Z,97624.16
2022-12-17T01:41:54.167Z,97629.74
2022-12-17T01:45:09.395Z,97629.88
2022-12-17T01:48:02.482Z,97629.94
2022-12-17T01:50:54.496Z,97635.02
2022-12-17T01:53:46.464Z,97637.23
2022-12-17T01:56:35.996Z,97639.92
2022-12-17T01:59:26.396Z,97640.98
2022-12-17T02:02:15.394Z,97642.45
2022-12-17T02:05:04.213Z,97648.92
2022-12-17T02:08:09.116Z,97648.55
2022-12-17T02:11:03.761Z,97650.45
2022-12-17T02:13:57.678Z,97643.14
2022-12-17T02:16:50.923Z,97642.77
2022-12-17T02:19:49.686Z,97647.05
2022-12-17T02:22:46.544Z,97649.20
2022-12-17T02:25:48.094Z,97657.98
2022-12-17T02:28:37.182Z,97660.08
2022-12-17T02:31:26.847Z,97659.05
2022-12-17T02:34:15.802Z,97660.61
2022-12-17T02:37:04.635Z,97668.88
2022-12-17T02:39:53.471Z,97680.98
2022-12-17T02:42:45.408Z,97686.55
2022-12-17T02:45:34.472Z,97685.50
2022-12-17T02:48:26.138Z,97683.48
2022-12-17T02:51:15.523Z,97683.45
2022-12-17T02:54:09.042Z,97686.58
2022-12-17T02:56:58.890Z,97685.23
2022-12-17T02:59:47.599Z,97684.95
2022-12-17T03:02:36.044Z,97690.39
2022-12-17T03:05:44.500Z,97695.48
2022-12-17T03:08:32.419Z,97697.23
2022-12-17T03:11:21.432Z,97702.64
2022-12-17T03:14:10.658Z,97706.15
2022-12-17T03:16:59.575Z,97703.48
2022-12-17T03:19:48.478Z,97707.92
2022-12-17T03:22:37.056Z,97716.66
2022-12-17T03:25:29.429Z,97716.60
2022-12-17T03:28:23.770Z,97716.79
2022-12-17T03:31:12.506Z,97712.54
2022-12-17T03:34:01.575Z,97715.59
2022-12-17T03:36:53.171Z,97716.75
2022-12-17T03:39:41.977Z,97718.83
2022-12-17T03:42:31.956Z,97716.42
2022-12-17T03:45:20.814Z,97716.07
2022-12-17T03:48:09.565Z,97715.22
2022-12-17T03:50:59.677Z,97718.04
2022-12-17T03:53:48.162Z,97719.15
2022-12-17T03:56:36.857Z,97724.48
2022-12-17T03:59:25.560Z,97733.56
2022-12-17T04:02:15.214Z,97735.61
2022-12-17T04:05:04.388Z,97742.12
2022-12-17T04:07:53.216Z,97741.73
2022-12-17T04:10:41.980Z,97753.55
2022-12-17T04:13:30.455Z,97760.75
2022-12-17T04:16:19.165Z,97766.70
2022-12-17T04:19:07.994Z,97766.45
2022-12-17T04:21:56.501Z,97775.02
2022-12-17T04:24:45.510Z,97781.97
2022-12-17T04:27:34.000Z,97787.19
2022-12-17T04:30:23.287Z,97793.81
2022-12-17T04:33:12.134Z,97797.17
2022-12-17T04:36:00.527Z,97796.71
2022-12-17T04:38:49.362Z,97801.27
2022-12-17T04:41:38.572Z,97804.49
2022-12-17T04:44:27.230Z,97805.77
2022-12-17T04:47:16.084Z,97810.99
2022-12-17T04:50:10.032Z,97817.34
2022-12-17T04:52:58.823Z,97814.06
2022-12-17T04:55:47.573Z,97820.58
2022-12-17T04:58:36.058Z,97824.41
2022-12-17T05:01:24.709Z,97825.38
2022-12-17T05:04:18.613Z,97829.26
2022-12-17T05:07:07.552Z,97822.61
2022-12-17T05:09:56.358Z,97822.73
2022-12-17T05:12:46.551Z,97827.03
2022-12-17T05:15:35.508Z,97834.94
2022-12-17T05:18:28.216Z,97837.08
2022-12-17T05:21:16.984Z,97835.21
2022-12-17T05:24:05.368Z,97836.34
2022-12-17T05:26:54.067Z,97839.30
2022-12-17T05:29:43.156Z,97837.64
2022-12-17T05:32:31.883Z,97845.38
2022-12-17T05:35:20.326Z,97847.52
2022-12-17T05:38:08.834Z,97854.70
2022-12-17T05:40:57.225Z,97856.35
2022-12-17T05:43:45.904Z,97860.92
2022-12-17T05:46:34.326Z,97861.81
2022-12-17T05:49:23.196Z,97864.60
2022-12-17T05:52:11.609Z,97867.01
2022-12-17T05:55:00.181Z,97871.27
2022-12-17T05:57:54.591Z,97876.71
2022-12-17T06:00:45.182Z,97875.13
2022-12-17T06:03:34.384Z,97877.31
2022-12-17T06:06:23.539Z,97882.52
2022-12-17T06:09:12.597Z,97886.42
2022-12-17T06:12:02.729Z,97893.86
2022-12-17T06:14:52.127Z,97892.90
2022-12-17T06:17:40.644Z,97895.77
2022-12-17T06:20:30.717Z,97899.15
2022-12-17T06:23:23.490Z,97904.89
2022-12-17T06:26:14.634Z,97908.32
2022-12-17T06:29:03.623Z,97916.45
2022-12-17T06:31:52.381Z,97921.21
2022-12-17T06:34:40.835Z,97918.41
2022-12-17T06:37:29.699Z,97921.12
2022-12-17T06:40:18.767Z,97924.74
2022-12-17T06:43:14.179Z,97932.58
2022-12-17T06:46:02.409Z,97941.30
2022-12-17T06:48:51.263Z,97943.36
2022-12-17T06:51:40.047Z,97946.76
2022-12-17T06:54:28.421Z,97951.59
2022-12-17T06:57:16.583Z,97955.23
2022-12-17T07:00:04.967Z,97959.69
2022-12-17T07:02:53.763Z,97964.15
2022-12-17T07:05:42.772Z,97969.40
2022-12-17T07:08:31.260Z,97970.50
2022-12-17T07:11:21.364Z,97973.54
2022-12-17T07:14:10.375Z,97977.55
2022-12-17T07:16:58.758Z,97978.59
2022-12-17T07:19:47.367Z,97982.73
2022-12-17T07:22:36.477Z,97989.05
2022-12-17T07:25:26.477Z,97998.11
2022-12-17T07:28:15.764Z,97999.99
2022-12-17T07:31:06.742Z,98006.73
2022-12-17T07:34:06.866Z,98011.00
2022-12-17T07:36:56.014Z,98012.44
2022-12-17T07:39:44.293Z,98014.58
2022-12-17T07:42:32.533Z,98019.29
2022-12-17T07:45:17.541Z,98017.90
2022-12-17T07:48:13.954Z,98021.34
2022-12-17T07:51:02.378Z,98026.91
2022-12-17T07:53:50.859Z,98029.18
2022-12-17T07:56:39.655Z,98030.15
2022-12-17T07:59:28.257Z,98035.33
2022-12-17T08:02:17.067Z,98034.37
2022-12-17T08:05:17.357Z,98041.95
2022-12-17T08:08:06.086Z,98046.83
2022-12-17T08:10:54.801Z,98050.67
2022-12-17T08:13:54.343Z,98055.72
2022-12-17T08:16:42.963Z,98060.12
2022-12-17T08:19:32.380Z,98065.86
2022-12-17T08:22:21.211Z,98069.71
2022-12-17T08:25:09.670Z,98073.17
2022-12-17T08:27:58.809Z,98074.89
2022-12-17T08:30:47.679Z,98078.19
2022-12-17T08:33:36.683Z,98082.91
2022-12-17T08:36:26.162Z,98086.03
2022-12-17T08:39:15.028Z,98087.85
2022-12-17T08:42:04.680Z,98090.98
2022-12-17T08:44:53.891Z,98093.38
2022-12-17T08:47:43.076Z,98096.58
2022-12-17T08:50:31.881Z,98101.67
2022-12-17T08:53:21.451Z,98098.34
2022-12-17T08:56:09.661Z,98103.05
2022-12-17T08:58:59.368Z,98109.40
2022-12-17T09:01:48.221Z,98111.89
2022-12-17T09:04:37.138Z,98110.39
2022-12-17T09:07:25.652Z,98117.17
2022-12-17T09:10:14.614Z,98117.53
2022-12-17T09:13:05.106Z,98120.66
2022-12-17T09:15:54.191Z,98126.52
2022-12-17T09:18:43.109Z,98128.18
2022-12-17T09:21:32.002Z,98125.61
2022-12-17T09:24:20.475Z,98128.10
2022-12-17T09:27:11.460Z,98124.80
2022-12-17T09:30:00.317Z,98124.31
2022-12-17T09:32:49.599Z,98130.40
2022-12-17T09:35:38.705Z,98132.38
2022-12-17T09:38:28.028Z,98134.38
2022-12-17T09:41:21.909Z,98136.66
2022-12-17T09:44:15.696Z,98144.77
2022-12-17T09:47:08.132Z,98145.52
2022-12-17T09:49:57.754Z,98148.30
2022-12-17T09:52:48.745Z,98148.48
2022-12-17T09:55:42.667Z,98150.91
2022-12-17T09:58:39.720Z,98153.39
2022-12-17T10:01:35.266Z,98156.00
2022-12-17T10:04:29.691Z,98154.06
2022-12-17T10:07:19.230Z,98153.27
2022-12-17T10:10:09.625Z,98156.09
2022-12-17T10:12:59.065Z,98161.14
2022-12-17T10:15:47.685Z,98166.63
2022-12-17T10:18:41.257Z,98170.33
2022-12-17T10:21:31.180Z,98179.04
2022-12-17T10:24:28.664Z,98179.95
2022-12-17T10:27:17.067Z,98182.59
2022-12-17T10:30:06.036Z,98187.34
2022-12-17T10:32:54.857Z,98184.17
2022-12-17T10:35:44.916Z,98187.08
2022-12-17T10:38:40.655Z,98190.01
2022-12-17T10:41:41.604Z,98191.69
2022-12-17T10:44:45.460Z,98196.22
2022-12-17T10:47:36.470Z,98195.14
2022-12-17T10:50:29.893Z,98197.44
2022-12-17T10:53:18.603Z,98203.24
2022-12-17T10:56:13.236Z,98210.06
2022-12-17T10:59:17.780Z,98210.64
2022-12-17T11:02:05.397Z,98215.52
2022-12-17T11:04:56.947Z,98214.46
2022-12-17T11:07:50.466Z,98218.86
2022-12-17T11:10:41.957Z,98217.09
2022-12-17T11:13:36.463Z,98220.92
2022-12-17T11:16:35.258Z,98220.48
2022-12-17T11:19:43.825Z,98225.15
2022-12-17T11:22:42.077Z,98228.13
2022-12-17T11:25:46.397Z,98232.18
2022-12-17T11:28:39.303Z,98236.58
2022-12-17T11:31:43.991Z,98240.67
2022-12-17T11:34:44.112Z,98246.74
2022-12-17T11:37:36.813Z,98248.12
2022-12-17T11:40:39.259Z,98254.71
2022-12-17T11:43:38.596Z,98257.37
2022-12-17T11:46:37.609Z,98257.72
2022-12-17T11:49:36.738Z,98263.64
2022-12-17T11:52:34.056Z,98261.58
2022-12-17T11:55:32.349Z,98260.73
2022-12-17T11:58:23.971Z,98267.21
2022-12-17T12:01:20.872Z,98268.29
2022-12-17T12:04:22.959Z,98265.02
2022-12-17T12:07:21.085Z,98266.87
2022-12-17T12:10:15.861Z,98266.52
2022-12-17T12:13:16.712Z,98266.36
2022-12-17T12:16:15.987Z,98262.27
2022-12-17T12:19:15.381Z,98262.53
2022-12-17T12:22:16.612Z,98263.30
2022-12-17T12:25:31.883Z,98259.80
2022-12-17T12:28:29.149Z,98260.75
2022-12-17T12:31:28.499Z,98259.38
2022-12-17T12:34:22.007Z,98259.35
2022-12-17T12:37:12.420Z,98263.90
2022-12-17T12:40:13.978Z,98265.72
2022-12-17T12:43:10.136Z,98270.60
2022-12-17T12:46:08.788Z,98279.13
2022-12-17T12:49:00.223Z,98280.39
2022-12-17T12:51:53.118Z,98287.33
2022-12-17T12:54:48.827Z,98286.20
2022-12-17T12:57:52.528Z,98287.08
2022-12-17T13:00:52.749Z,98287.81
2022-12-17T13:03:46.437Z,98290.90
2022-12-17T13:06:41.989Z,98290.79
2022-12-17T13:09:35.378Z,98291.02
2022-12-17T13:12:21.644Z,98292.48
2022-12-17T13:14:57.697Z,98294.36
2022-12-17T13:17:35.554Z,98302.77
2022-12-17T13:20:32.710Z,98304.69
2022-12-17T13:23:27.960Z,98306.45
2022-12-17T13:26:32.089Z,98308.02
2022-12-17T13:29:12.756Z,98317.44
2022-12-17T13:31:54.710Z,98321.59
2022-12-17T13:34:32.125Z,98324.98
2022-12-17T13:37:14.185Z,98331.21
2022-12-17T13:39:52.400Z,98330.20
2022-12-17T13:42:29.769Z,98329.09
2022-12-17T13:45:01.443Z,98335.81
2022-12-17T13:47:35.256Z,98335.96
2022-12-17T13:50:36.595Z,98338.17
2022-12-17T13:53:17.939Z,98343.41
2022-12-17T13:55:54.985Z,98345.98
2022-12-17T13:58:28.320Z,98349.53
2022-12-17T14:01:09.956Z,98355.79
2022-12-17T14:04:05.100Z,98360.32
2022-12-17T14:06:39.128Z,98364.68
2022-12-17T14:09:15.906Z,98369.96
2022-12-17T14:12:04.990Z,98377.11
2022-12-17T14:14:38.837Z,98377.36
2022-12-17T14:17:21.931Z,98383.45
2022-12-17T14:19:59.473Z,98390.33
2022-12-17T14:22:36.399Z,98395.13
2022-12-17T14:25:18.867Z,98394.12
2022-12-17T14:27:56.839Z,98396.36
2022-12-17T14:30:40.289Z,98395.67
2022-12-17T14:33:29.951Z,98404.94
2022-12-17T14:36:04.344Z,98408.88
2022-12-17T14:38:48.212Z,98414.14
2022-12-17T14:41:37.330Z,98420.13
2022-12-17T14:44:21.362Z,98423.88
2022-12-17T14:46:55.021Z,98425.20
2022-12-17T14:49:25.932Z,98430.35
2022-12-17T14:51:58.895Z,98432.19
2022-12-17T14:54:33.126Z,98433.27
2022-12-17T14:57:20.035Z,98436.16
2022-12-17T14:59:52.501Z,98440.77
2022-12-17T15:02:26.964Z,98442.04
2022-12-17T15:05:02.409Z,98449.48
2022-12-17T15:07:34.326Z,98450.66
2022-12-17T15:10:13.592Z,98449.84
2022-12-17T15:12:45.281Z,98453.52
2022-12-17T15:15:17.141Z,98458.84
2022-12-17T15:17:49.198Z,98460.24
2022-12-17T15:20:22.398Z,98468.55
2022-12-17T15:22:53.496Z,98469.58
2022-12-17T15:25:24.741Z,98473.50
2022-12-17T15:27:56.311Z,98478.11
2022-12-17T15:30:27.326Z,98486.75
2022-12-17T15:32:58.599Z,98491.55
2022-12-17T15:35:30.042Z,98490.27
2022-12-17T15:38:01.118Z,98493.36
2022-12-17T15:40:32.418Z,98494.53
2022-12-17T15:43:13.222Z,98491.39
2022-12-17T15:45:46.311Z,98489.86
2022-12-17T15:48:19.870Z,98492.56
2022-12-17T15:50:51.361Z,98495.01
2022-12-17T15:53:22.501Z,98503.89
2022-12-17T15:55:59.998Z,98511.05
2022-12-17T15:58:31.136Z,98518.06
2022-12-17T16:01:02.391Z,98525.30
2022-12-17T16:03:33.694Z,98526.77
2022-12-17T16:06:05.236Z,98529.86
2022-12-17T16:08:38.573Z,98532.63
2022-12-17T16:11:11.980Z,98537.55
2022-12-17T16:13:43.558Z,98541.21
2022-12-17T16:16:14.547Z,98536.83
2022-12-17T16:18:46.177Z,98538.84
2022-12-17T16:21:17.333Z,98544.48
2022-12-17T16:23:49.106Z,98547.11
2022-12-17T16:26:20.327Z,98550.77
2022-12-17T16:28:51.826Z,98552.92
2022-12-17T16:31:23.919Z,98561.59
2022-12-17T16:33:55.139Z,98563.95
2022-12-17T16:36:26.150Z,98567.02
2022-12-17T16:38:57.532Z,98567.54
2022-12-17T16:41:28.441Z,98570.20
2022-12-17T16:43:59.295Z,98574.67
2022-12-17T16:46:32.435Z,98571.02
2022-12-17T16:49:08.568Z,98571.52
2022-12-17T16:51:39.707Z,98572.61
2022-12-17T16:54:13.718Z,98573.25
2022-12-17T16:56:46.517Z,98581.39
2022-12-17T16:59:18.977Z,98584.97
2022-12-17T17:01:51.793Z,98586.73
2022-12-17T17:04:24.629Z,98591.92
2022-12-17T17:06:57.821Z,98594.83
2022-12-17T17:09:29.069Z,98599.79
2022-12-17T17:12:00.580Z,98602.52
2022-12-17T17:14:31.477Z,98597.91
2022-12-17T17:17:02.345Z,98596.64
2022-12-17T17:19:33.782Z,98601.20
2022-12-17T17:22:04.792Z,98602.34
2022-12-17T17:24:35.661Z,98608.06
2022-12-17T17:27:06.655Z,98606.55
2022-12-17T17:29:37.700Z,98609.48
2022-12-17T17:32:11.435Z,98609.64
2022-12-17T17:34:44.362Z,98616.77
2022-12-17T17:37:16.193Z,98621.30
2022-12-17T17:39:47.381Z,98625.96
2022-12-17T17:42:18.397Z,98630.21
2022-12-17T17:44:49.918Z,98633.64
2022-12-17T17:47:20.896Z,98640.34
2022-12-17T17:49:51.906Z,98639.26
2022-12-17T17:52:22.817Z,98643.10
2022-12-17T17:54:54.267Z,98648.59
2022-12-17T17:57:25.157Z,98650.83
2022-12-17T17:59:56.141Z,98646.67
2022-12-17T18:02:27.339Z,98646.81
2022-12-17T18:04:58.383Z,98650.85
2022-12-17T18:07:29.291Z,98653.25
2022-12-17T18:10:00.744Z,98656.06
2022-12-17T18:12:49.321Z,98659.27
2022-12-17T18:15:20.271Z,98664.42
2022-12-17T18:17:52.791Z,98666.20
2022-12-17T18:20:24.101Z,98671.95
2022-12-17T18:22:54.890Z,98675.90
2022-12-17T18:25:26.014Z,98681.09
2022-12-17T18:27:57.108Z,98684.38
2022-12-17T18:30:28.167Z,98691.88
2022-12-17T18:32:59.003Z,98695.39
2022-12-17T18:35:29.886Z,98694.92
2022-12-17T18:38:01.779Z,98701.42
2022-12-17T18:40:33.567Z,98699.86
2022-12-17T18:43:30.327Z,98701.67
2022-12-17T18:46:06.551Z,98706.57
2022-12-17T18:48:37.864Z,98717.44
2022-12-17T18:51:09.686Z,98720.42
2022-12-17T18:53:40.561Z,98722.80
2022-12-17T18:56:19.364Z,98724.73
2022-12-17T18:58:58.187Z,98728.39
2022-12-17T19:01:31.736Z,98730.64
2022-12-17T19:04:07.355Z,98734.57
2022-12-17T19:06:39.950Z,98740.06
2022-12-17T19:09:18.774Z,98745.22
2022-12-17T19:11:50.834Z,98742.85
2022-12-17T19:14:23.280Z,98744.42
2022-12-17T19:16:56.271Z,98747.13
2022-12-17T19:19:27.798Z,98751.55
2022-12-17T19:22:00.030Z,98755.31
2022-12-17T19:24:31.023Z,98763.72
2022-12-17T19:27:02.430Z,98774.37
2022-12-17T19:29:33.621Z,98774.84
2022-12-17T19:32:04.630Z,98776.37
2022-12-17T19:34:36.116Z,98777.90
2022-12-17T19:37:07.250Z,98775.81
2022-12-17T19:39:38.158Z,98776.06
2022-12-17T19:42:24.541Z,98779.53
2022-12-17T19:44:56.672Z,98784.48
2022-12-17T19:47:29.224Z,98783.77
2022-12-17T19:50:00.290Z,98787.45
2022-12-17T19:52:31.166Z,98786.72
2022-12-17T19:55:02.558Z,98783.66
2022-12-17T19:57:36.547Z,98781.41
2022-12-17T20:00:09.412Z,98783.39
2022-12-17T20:02:40.587Z,98784.56
2022-12-17T20:05:12.106Z,98785.54
2022-12-17T20:07:43.648Z,98789.96
2022-12-17T20:10:14.558Z,98794.56
2022-12-17T20:12:45.859Z,98802.63
2022-12-17T20:15:17.055Z,98801.25
2022-12-17T20:17:48.175Z,98800.23
2022-12-17T20:20:19.236Z,98797.80
2022-12-17T20:22:50.451Z,98797.61
2022-12-17T20:25:21.465Z,98806.20
2022-12-17T20:27:52.349Z,98811.13
2022-12-17T20:30:23.186Z,98811.23
2022-12-17T20:32:55.087Z,98813.41
2022-12-17T20:35:24.301Z,98812.52
2022-12-17T20:37:55.418Z,98813.56
2022-12-17T20:40:26.272Z,98815.14
2022-12-17T20:42:57.225Z,98816.84
2022-12-17T20:45:28.262Z,98817.13
2022-12-17T20:47:59.596Z,98820.69
2022-12-17T20:50:30.983Z,98821.83
2022-12-17T20:53:01.935Z,98824.20
2022-12-17T20:55:32.868Z,98829.23
2022-12-17T20:58:04.105Z,98830.36
2022-12-17T21:00:35.164Z,98826.55
2022-12-17T21:03:06.566Z,98827.72
2022-12-17T21:05:38.686Z,98823.47
2022-12-17T21:08:09.715Z,98827.13
2022-12-17T21:10:40.721Z,98827.48
2022-12-17T21:13:31.017Z,98832.00
2022-12-17T21:16:03.626Z,98837.61
2022-12-17T21:18:35.362Z,98834.68
2022-12-17T21:21:08.855Z,98835.20
2022-12-17T21:23:40.914Z,98844.86
2022-12-17T21:26:14.916Z,98847.69
2022-12-17T21:28:47.824Z,98853.91
2022-12-17T21:31:21.839Z,98858.27
2022-12-17T21:33:54.976Z,98857.47
2022-12-17T21:36:27.218Z,98856.04
2022-12-17T21:38:58.777Z,98859.09
2022-12-17T21:41:32.269Z,98861.44
2022-12-17T21:44:05.307Z,98860.23
2022-12-17T21:46:36.415Z,98866.04
2022-12-17T21:49:07.766Z,98869.48
2022-12-17T21:51:39.035Z,98872.52
2022-12-17T21:54:12.333Z,98878.13
2022-12-17T21:56:46.893Z,98874.77
2022-12-17T21:59:18.078Z,98875.86
2022-12-17T22:01:50.033Z,98879.10
2022-12-17T22:04:21.474Z,98879.66
2022-12-17T22:06:58.292Z,98884.56
2022-12-17T22:09:57.538Z,98883.77
2022-12-17T22:12:47.400Z,98886.41
2022-12-17T22:15:18.388Z,98887.63
2022-12-17T22:17:50.774Z,98885.02
2022-12-17T22:20:22.059Z,98882.94
2022-12-17T22:22:53.293Z,98889.23
2022-12-17T22:25:24.399Z,98894.67
2022-12-17T22:27:55.643Z,98901.14
2022-12-17T22:30:44.564Z,98907.20
2022-12-17T22:33:22.238Z,98909.02
2022-12-17T22:37:58.165Z,98908.48
2022-12-17T22:42:36.928Z,98913.76
2022-12-17T22:44:46.138Z,98913.38
2022-12-17T22:45:06.146Z,98918.63
2022-12-17T22:47:39.644Z,98919.40
2022-12-17T22:50:11.833Z,98921.04
2022-12-17T22:52:43.297Z,98926.15
2022-12-17T22:55:15.779Z,98930.05
2022-12-17T22:57:47.291Z,98929.39
2022-12-17T23:00:22.243Z,98931.39
2022-12-17T23:02:55.527Z,98933.17
2022-12-17T23:05:28.590Z,98934.80
2022-12-17T23:08:00.120Z,98934.00
2022-12-17T23:10:31.368Z,98933.39
2022-12-17T23:13:02.686Z,98938.73
2022-12-17T23:15:37.857Z,98942.03
2022-12-17T23:18:09.492Z,98945.98
2022-12-17T23:20:40.610Z,98944.14
2022-12-17T23:23:11.435Z,98945.80
2022-12-17T23:25:42.677Z,98942.73
2022-12-17T23:28:13.688Z,98943.87
2022-12-17T23:30:44.874Z,98947.85
2022-12-17T23:33:15.912Z,98952.05
2022-12-17T23:35:47.080Z,98952.38
2022-12-17T23:38:18.242Z,98946.98
2022-12-17T23:40:49.552Z,98950.52
2022-12-17T23:43:20.471Z,98956.98
2022-12-17T23:45:51.809Z,98957.57
2022-12-17T23:48:22.854Z,98956.19
2022-12-17T23:50:53.914Z,98955.72
2022-12-17T23:53:25.061Z,98955.40
2022-12-17T23:55:56.044Z,98958.52
2022-12-17T23:58:27.170Z,98956.52
